sensor_id;sensor_type;location;lat;lon;timestamp;pressure;altitude;pressure_sealevel;temperature;humidity
39793;BME280;26080;42.264;24.536;2023-03-03T00:01:13;99606.03;;;5.74;100.00
39793;BME280;26080;42.264;24.536;2023-03-03T00:03:39;99610.63;;;5.62;100.00
39793;BME280;26080;42.264;24.536;2023-03-03T00:06:08;99601.31;;;5.52;100.00
39793;BME280;26080;42.264;24.536;2023-03-03T00:08:35;99601.06;;;5.64;100.00
39793;BME280;26080;42.264;24.536;2023-03-03T00:11:01;99596.63;;;5.68;100.00
39793;BME280;26080;42.264;24.536;2023-03-03T00:13:29;99587.19;;;5.65;100.00
39793;BME280;26080;42.264;24.536;2023-03-03T00:16:13;99588.69;;;5.76;100.00
39793;BME280;26080;42.264;24.536;2023-03-03T00:18:44;99586.19;;;5.70;100.00
39793;BME280;26080;42.264;24.536;2023-03-03T00:23:54;99570.66;;;5.68;100.00
39793;BME280;26080;42.264;24.536;2023-03-03T00:26:33;99569.06;;;5.62;100.00
39793;BME280;26080;42.264;24.536;2023-03-03T00:29:01;99575.97;;;5.63;100.00
39793;BME280;26080;42.264;24.536;2023-03-03T00:31:34;99571.09;;;5.50;100.00
39793;BME280;26080;42.264;24.536;2023-03-03T00:34:24;99567.59;;;5.51;100.00
39793;BME280;26080;42.264;24.536;2023-03-03T00:36:53;99561.59;;;5.47;100.00
39793;BME280;26080;42.264;24.536;2023-03-03T00:41:58;99558.38;;;5.38;100.00
39793;BME280;26080;42.264;24.536;2023-03-03T00:47:30;99559.28;;;5.33;100.00
39793;BME280;26080;42.264;24.536;2023-03-03T00:52:39;99540.41;;;5.27;100.00
39793;BME280;26080;42.264;24.536;2023-03-03T00:55:10;99533.63;;;5.21;100.00
39793;BME280;26080;42.264;24.536;2023-03-03T00:57:35;99504.47;;;5.07;100.00
39793;BME280;26080;42.264;24.536;2023-03-03T01:00:01;99516.44;;;5.14;100.00
39793;BME280;26080;42.264;24.536;2023-03-03T01:02:26;99517.41;;;5.10;100.00
39793;BME280;26080;42.264;24.536;2023-03-03T01:04:52;99523.19;;;5.23;100.00
39793;BME280;26080;42.264;24.536;2023-03-03T01:07:21;99510.22;;;5.23;100.00
39793;BME280;26080;42.264;24.536;2023-03-03T01:09:47;99508.63;;;5.16;100.00
39793;BME280;26080;42.264;24.536;2023-03-03T01:12:12;99494.31;;;4.98;100.00
39793;BME280;26080;42.264;24.536;2023-03-03T01:14:38;99490.88;;;4.97;100.00
39793;BME280;26080;42.264;24.536;2023-03-03T01:17:04;99515.59;;;5.14;100.00
39793;BME280;26080;42.264;24.536;2023-03-03T01:19:30;99491.50;;;5.09;100.00
39793;BME280;26080;42.264;24.536;2023-03-03T01:21:56;99479.41;;;5.08;100.00
39793;BME280;26080;42.264;24.536;2023-03-03T01:24:22;99477.13;;;4.94;100.00
39793;BME280;26080;42.264;24.536;2023-03-03T01:26:47;99508.47;;;5.23;100.00
39793;BME280;26080;42.264;24.536;2023-03-03T01:29:13;99481.06;;;5.10;100.00
39793;BME280;26080;42.264;24.536;2023-03-03T01:31:38;99498.72;;;5.33;100.00
39793;BME280;26080;42.264;24.536;2023-03-03T01:34:05;99479.09;;;5.20;100.00
39793;BME280;26080;42.264;24.536;2023-03-03T01:36:31;99501.53;;;5.24;100.00
39793;BME280;26080;42.264;24.536;2023-03-03T01:38:57;99515.25;;;5.29;100.00
39793;BME280;26080;42.264;24.536;2023-03-03T01:41:26;99517.69;;;5.37;100.00
39793;BME280;26080;42.264;24.536;2023-03-03T01:43:53;99510.81;;;5.34;100.00
39793;BME280;26080;42.264;24.536;2023-03-03T01:48:56;99509.63;;;5.47;100.00
39793;BME280;26080;42.264;24.536;2023-03-03T01:51:33;99512.91;;;5.55;100.00
39793;BME280;26080;42.264;24.536;2023-03-03T01:54:02;99511.03;;;5.62;100.00
39793;BME280;26080;42.264;24.536;2023-03-03T01:56:29;99513.56;;;5.65;100.00
39793;BME280;26080;42.264;24.536;2023-03-03T01:59:16;99498.81;;;5.65;100.00
39793;BME280;26080;42.264;24.536;2023-03-03T02:01:45;99510.81;;;5.71;100.00
39793;BME280;26080;42.264;24.536;2023-03-03T02:04:11;99505.66;;;5.70;100.00
39793;BME280;26080;42.264;24.536;2023-03-03T02:06:41;99477.22;;;5.63;100.00
39793;BME280;26080;42.264;24.536;2023-03-03T02:11:43;99501.00;;;5.82;100.00
39793;BME280;26080;42.264;24.536;2023-03-03T02:14:11;99471.13;;;5.64;100.00
39793;BME280;26080;42.264;24.536;2023-03-03T02:16:37;99491.75;;;5.71;100.00
39793;BME280;26080;42.264;24.536;2023-03-03T02:19:04;99495.16;;;5.73;100.00
39793;BME280;26080;42.264;24.536;2023-03-03T02:21:33;99482.84;;;5.81;100.00
39793;BME280;26080;42.264;24.536;2023-03-03T02:24:09;99487.88;;;5.87;100.00
39793;BME280;26080;42.264;24.536;2023-03-03T02:26:41;99482.94;;;5.78;100.00
39793;BME280;26080;42.264;24.536;2023-03-03T02:29:08;99466.84;;;5.63;100.00
39793;BME280;26080;42.264;24.536;2023-03-03T02:31:34;99487.88;;;5.87;100.00
39793;BME280;26080;42.264;24.536;2023-03-03T02:33:59;99490.66;;;5.81;100.00
39793;BME280;26080;42.264;24.536;2023-03-03T02:36:29;99482.22;;;5.71;100.00
39793;BME280;26080;42.264;24.536;2023-03-03T02:41:35;99475.56;;;5.59;100.00
39793;BME280;26080;42.264;24.536;2023-03-03T02:44:11;99485.03;;;5.63;100.00
39793;BME280;26080;42.264;24.536;2023-03-03T02:46:39;99490.06;;;5.70;100.00
39793;BME280;26080;42.264;24.536;2023-03-03T02:49:07;99484.19;;;5.61;100.00
39793;BME280;26080;42.264;24.536;2023-03-03T02:51:33;99485.06;;;5.60;100.00
39793;BME280;26080;42.264;24.536;2023-03-03T02:53:59;99479.97;;;5.57;100.00
39793;BME280;26080;42.264;24.536;2023-03-03T02:56:24;99479.88;;;5.62;100.00
39793;BME280;26080;42.264;24.536;2023-03-03T02:58:50;99488.56;;;5.59;100.00
39793;BME280;26080;42.264;24.536;2023-03-03T03:01:16;99476.72;;;5.49;100.00
39793;BME280;26080;42.264;24.536;2023-03-03T03:03:41;99485.53;;;5.42;100.00
39793;BME280;26080;42.264;24.536;2023-03-03T03:06:07;99488.97;;;5.43;100.00
39793;BME280;26080;42.264;24.536;2023-03-03T03:08:32;99483.91;;;5.38;100.00
39793;BME280;26080;42.264;24.536;2023-03-03T03:10:58;99484.75;;;5.39;100.00
39793;BME280;26080;42.264;24.536;2023-03-03T03:13:23;99473.47;;;5.40;100.00
39793;BME280;26080;42.264;24.536;2023-03-03T03:15:49;99471.66;;;5.43;100.00
39793;BME280;26080;42.264;24.536;2023-03-03T03:18:15;99481.25;;;5.40;100.00
39793;BME280;26080;42.264;24.536;2023-03-03T03:20:41;99482.03;;;5.43;100.00
39793;BME280;26080;42.264;24.536;2023-03-03T03:23:08;99484.94;;;5.29;100.00
39793;BME280;26080;42.264;24.536;2023-03-03T03:25:34;99474.53;;;5.31;100.00
39793;BME280;26080;42.264;24.536;2023-03-03T03:28:00;99476.06;;;5.40;100.00
39793;BME280;26080;42.264;24.536;2023-03-03T03:30:26;99476.75;;;5.46;100.00
39793;BME280;26080;42.264;24.536;2023-03-03T03:32:52;99476.63;;;5.52;100.00
39793;BME280;26080;42.264;24.536;2023-03-03T03:35:17;99476.56;;;5.55;100.00
39793;BME280;26080;42.264;24.536;2023-03-03T03:37:43;99480.63;;;5.65;100.00
39793;BME280;26080;42.264;24.536;2023-03-03T03:40:09;99477.97;;;5.69;100.00
39793;BME280;26080;42.264;24.536;2023-03-03T03:42:35;99475.41;;;5.67;100.00
39793;BME280;26080;42.264;24.536;2023-03-03T03:45:02;99471.13;;;5.64;100.00
39793;BME280;26080;42.264;24.536;2023-03-03T03:47:27;99460.88;;;5.58;100.00
39793;BME280;26080;42.264;24.536;2023-03-03T03:49:53;99469.44;;;5.63;100.00
39793;BME280;26080;42.264;24.536;2023-03-03T03:52:18;99477.16;;;5.67;100.00
39793;BME280;26080;42.264;24.536;2023-03-03T03:54:44;99481.38;;;5.71;100.00
39793;BME280;26080;42.264;24.536;2023-03-03T03:57:09;99476.25;;;5.68;100.00
39793;BME280;26080;42.264;24.536;2023-03-03T03:59:35;99476.25;;;5.68;100.00
39793;BME280;26080;42.264;24.536;2023-03-03T04:02:00;99478.03;;;5.65;100.00
39793;BME280;26080;42.264;24.536;2023-03-03T04:04:26;99475.34;;;5.69;100.00
39793;BME280;26080;42.264;24.536;2023-03-03T04:06:51;99469.41;;;5.65;100.00
39793;BME280;26080;42.264;24.536;2023-03-03T04:09:17;99467.59;;;5.67;100.00
39793;BME280;26080;42.264;24.536;2023-03-03T04:11:42;99474.44;;;5.71;100.00
39793;BME280;26080;42.264;24.536;2023-03-03T04:14:07;99477.78;;;5.75;100.00
39793;BME280;26080;42.264;24.536;2023-03-03T04:16:33;99473.53;;;5.72;100.00
39793;BME280;26080;42.264;24.536;2023-03-03T04:18:59;99470.75;;;5.80;100.00
39793;BME280;26080;42.264;24.536;2023-03-03T04:21:24;99459.09;;;5.60;100.00
39793;BME280;26080;42.264;24.536;2023-03-03T04:23:50;99478.78;;;5.71;100.00
39793;BME280;26080;42.264;24.536;2023-03-03T04:26:17;99465.03;;;5.65;100.00
39793;BME280;26080;42.264;24.536;2023-03-03T04:28:43;99487.34;;;5.74;100.00
39793;BME280;26080;42.264;24.536;2023-03-03T04:31:09;99478.72;;;5.72;100.00
39793;BME280;26080;42.264;24.536;2023-03-03T04:33:34;99465.84;;;5.68;100.00
39793;BME280;26080;42.264;24.536;2023-03-03T04:36:00;99475.53;;;5.61;100.00
39793;BME280;26080;42.264;24.536;2023-03-03T04:38:26;99483.31;;;5.62;100.00
39793;BME280;26080;42.264;24.536;2023-03-03T04:40:51;99479.81;;;5.63;100.00
39793;BME280;26080;42.264;24.536;2023-03-03T04:43:17;99471.19;;;5.61;100.00
39793;BME280;26080;42.264;24.536;2023-03-03T04:45:42;99476.47;;;5.58;100.00
39793;BME280;26080;42.264;24.536;2023-03-03T04:48:08;99469.47;;;5.62;100.00
39793;BME280;26080;42.264;24.536;2023-03-03T04:50:34;99472.81;;;5.67;100.00
39793;BME280;26080;42.264;24.536;2023-03-03T04:53:00;99475.34;;;5.69;100.00
39793;BME280;26080;42.264;24.536;2023-03-03T04:55:25;99467.66;;;5.65;100.00
39793;BME280;26080;42.264;24.536;2023-03-03T04:57:51;99452.16;;;5.61;100.00
39793;BME280;26080;42.264;24.536;2023-03-03T05:00:17;99445.53;;;5.49;100.00
39793;BME280;26080;42.264;24.536;2023-03-03T05:02:43;99478.94;;;5.64;100.00
39793;BME280;26080;42.264;24.536;2023-03-03T05:05:09;99479.88;;;5.60;100.00
39793;BME280;26080;42.264;24.536;2023-03-03T05:07:35;99483.38;;;5.59;100.00
39793;BME280;26080;42.264;24.536;2023-03-03T05:10:00;99458.00;;;5.33;100.00
39793;BME280;26080;42.264;24.536;2023-03-03T05:12:26;99485.41;;;5.48;100.00
39793;BME280;26080;42.264;24.536;2023-03-03T05:14:52;99473.34;;;5.44;100.00
39793;BME280;26080;42.264;24.536;2023-03-03T05:17:17;99487.16;;;5.46;100.00
39793;BME280;26080;42.264;24.536;2023-03-03T05:19:43;99457.34;;;5.25;100.00
39793;BME280;26080;42.264;24.536;2023-03-03T05:22:08;99456.59;;;5.22;100.00
39793;BME280;26080;42.264;24.536;2023-03-03T05:24:34;99477.03;;;5.34;100.00
39793;BME280;26080;42.264;24.536;2023-03-03T05:27:00;99467.53;;;5.33;100.00
39793;BME280;26080;42.264;24.536;2023-03-03T05:29:25;99475.50;;;5.27;100.00
39793;BME280;26080;42.264;24.536;2023-03-03T05:31:52;99450.66;;;5.15;100.00
39793;BME280;26080;42.264;24.536;2023-03-03T05:34:18;99473.63;;;5.32;100.00
39793;BME280;26080;42.264;24.536;2023-03-03T05:36:43;99466.72;;;5.31;100.00
39793;BME280;26080;42.264;24.536;2023-03-03T05:39:09;99468.28;;;5.40;100.00
39793;BME280;26080;42.264;24.536;2023-03-03T05:41:34;99461.25;;;5.43;100.00
39793;BME280;26080;42.264;24.536;2023-03-03T05:44:01;99463.06;;;5.40;100.00
39793;BME280;26080;42.264;24.536;2023-03-03T05:46:27;99456.06;;;5.43;100.00
39793;BME280;26080;42.264;24.536;2023-03-03T05:48:52;99481.53;;;5.64;100.00
39793;BME280;26080;42.264;24.536;2023-03-03T05:51:18;99484.94;;;5.67;100.00
39793;BME280;26080;42.264;24.536;2023-03-03T05:53:44;99484.72;;;5.76;100.00
39793;BME280;26080;42.264;24.536;2023-03-03T05:56:09;99484.78;;;5.73;100.00
39793;BME280;26080;42.264;24.536;2023-03-03T05:58:34;99468.47;;;5.68;100.00
39793;BME280;26080;42.264;24.536;2023-03-03T06:01:00;99464.66;;;5.81;100.00
39793;BME280;26080;42.264;24.536;2023-03-03T06:03:26;99476.53;;;5.92;100.00
39793;BME280;26080;42.264;24.536;2023-03-03T06:05:51;99482.53;;;5.94;100.00
39793;BME280;26080;42.264;24.536;2023-03-03T06:08:17;99494.69;;;5.94;100.00
39793;BME280;26080;42.264;24.536;2023-03-03T06:10:42;99501.69;;;5.89;100.00
39793;BME280;26080;42.264;24.536;2023-03-03T06:13:08;99499.88;;;5.94;100.00
39793;BME280;26080;42.264;24.536;2023-03-03T06:15:34;99487.53;;;6.02;100.00
39793;BME280;26080;42.264;24.536;2023-03-03T06:18:00;99496.25;;;6.00;100.00
39793;BME280;26080;42.264;24.536;2023-03-03T06:20:25;99498.75;;;6.04;100.00
39793;BME280;26080;42.264;24.536;2023-03-03T06:22:50;99509.88;;;6.09;100.00
39793;BME280;26080;42.264;24.536;2023-03-03T06:25:16;99467.09;;;5.87;100.00
39793;BME280;26080;42.264;24.536;2023-03-03T06:27:42;99508.69;;;6.22;100.00
39793;BME280;26080;42.264;24.536;2023-03-03T06:30:08;99492.34;;;6.17;100.00
39793;BME280;26080;42.264;24.536;2023-03-03T06:32:33;99505.91;;;6.29;100.00
39793;BME280;26080;42.264;24.536;2023-03-03T06:34:59;99511.66;;;6.40;100.00
39793;BME280;26080;42.264;24.536;2023-03-03T06:37:25;99513.94;;;6.52;100.00
39793;BME280;26080;42.264;24.536;2023-03-03T06:39:50;99512.09;;;6.56;100.00
39793;BME280;26080;42.264;24.536;2023-03-03T06:42:17;99513.63;;;6.64;100.00
39793;BME280;26080;42.264;24.536;2023-03-03T06:44:43;99505.34;;;6.50;100.00
39793;BME280;26080;42.264;24.536;2023-03-03T06:47:08;99514.72;;;6.56;100.00
39793;BME280;26080;42.264;24.536;2023-03-03T06:49:34;99514.78;;;6.52;100.00
39793;BME280;26080;42.264;24.536;2023-03-03T06:52:01;99521.28;;;6.38;100.00
39793;BME280;26080;42.264;24.536;2023-03-03T06:54:29;99520.59;;;6.31;100.00
39793;BME280;26080;42.264;24.536;2023-03-03T06:56:59;99514.50;;;6.32;100.00
39793;BME280;26080;42.264;24.536;2023-03-03T06:59:26;99515.50;;;6.27;100.00
39793;BME280;26080;42.264;24.536;2023-03-03T07:01:52;99518.13;;;6.25;100.00
39793;BME280;26080;42.264;24.536;2023-03-03T07:04:30;99516.56;;;6.19;100.00
39793;BME280;26080;42.264;24.536;2023-03-03T07:06:58;99519.88;;;6.24;100.00
39793;BME280;26080;42.264;24.536;2023-03-03T07:09:26;99515.53;;;6.25;100.00
39793;BME280;26080;42.264;24.536;2023-03-03T07:11:56;99496.88;;;6.09;100.00
39793;BME280;26080;42.264;24.536;2023-03-03T07:14:24;99509.41;;;6.28;100.00
39793;BME280;26080;42.264;24.536;2023-03-03T07:16:59;99524.06;;;6.30;100.00
39793;BME280;26080;42.264;24.536;2023-03-03T07:19:44;99522.16;;;6.37;100.00
39793;BME280;26080;42.264;24.536;2023-03-03T07:22:20;99522.09;;;6.40;100.00
39793;BME280;26080;42.264;24.536;2023-03-03T07:24:51;99524.59;;;6.44;100.00
39793;BME280;26080;42.264;24.536;2023-03-03T07:29:46;99523.31;;;6.58;100.00
39793;BME280;26080;42.264;24.536;2023-03-03T07:32:37;99522.22;;;6.66;100.00
39793;BME280;26080;42.264;24.536;2023-03-03T07:37:46;99521.88;;;6.78;100.00
39793;BME280;26080;42.264;24.536;2023-03-03T07:42:46;99511.38;;;6.81;100.00
39793;BME280;26080;42.264;24.536;2023-03-03T07:45:25;99510.47;;;6.82;100.00
39793;BME280;26080;42.264;24.536;2023-03-03T07:47:59;99519.88;;;6.88;100.00
39793;BME280;26080;42.264;24.536;2023-03-03T07:50:26;99519.72;;;6.93;100.00
39793;BME280;26080;42.264;24.536;2023-03-03T07:52:59;99524.72;;;7.00;100.00
39793;BME280;26080;42.264;24.536;2023-03-03T07:57:59;99517.13;;;6.93;100.00
39793;BME280;26080;42.264;24.536;2023-03-03T08:02:56;99511.53;;;7.06;100.00
39793;BME280;26080;42.264;24.536;2023-03-03T08:07:52;99515.97;;;7.03;100.00
39793;BME280;26080;42.264;24.536;2023-03-03T08:10:47;99511.22;;;6.88;100.00
39793;BME280;26080;42.264;24.536;2023-03-03T08:13:17;99507.81;;;6.86;100.00
39793;BME280;26080;42.264;24.536;2023-03-03T08:15:45;99500.88;;;6.84;100.00
39793;BME280;26080;42.264;24.536;2023-03-03T08:21:02;99502.59;;;6.86;100.00
39793;BME280;26080;42.264;24.536;2023-03-03T08:23:28;99500.00;;;6.84;100.00
39793;BME280;26080;42.264;24.536;2023-03-03T08:25:54;99482.09;;;6.75;100.00
39793;BME280;26080;42.264;24.536;2023-03-03T08:28:20;99497.66;;;6.76;100.00
39793;BME280;26080;42.264;24.536;2023-03-03T08:30:46;99482.44;;;6.63;100.00
39793;BME280;26080;42.264;24.536;2023-03-03T08:33:13;99487.06;;;6.51;100.00
39793;BME280;26080;42.264;24.536;2023-03-03T08:35:39;99487.97;;;6.50;100.00
39793;BME280;26080;42.264;24.536;2023-03-03T08:38:05;99486.41;;;6.43;100.00
39793;BME280;26080;42.264;24.536;2023-03-03T08:40:31;99477.06;;;6.38;100.00
39793;BME280;26080;42.264;24.536;2023-03-03T08:42:57;99467.09;;;6.21;100.00
39793;BME280;26080;42.264;24.536;2023-03-03T08:45:23;99474.41;;;6.39;100.00
39793;BME280;26080;42.264;24.536;2023-03-03T08:47:49;99477.47;;;6.53;100.00
39793;BME280;26080;42.264;24.536;2023-03-03T08:50:14;99472.91;;;6.62;100.00
39793;BME280;26080;42.264;24.536;2023-03-03T08:52:40;99465.50;;;6.48;100.00
39793;BME280;26080;42.264;24.536;2023-03-03T08:55:06;99478.47;;;6.49;100.00
39793;BME280;26080;42.264;24.536;2023-03-03T08:57:32;99475.16;;;6.44;100.00
39793;BME280;26080;42.264;24.536;2023-03-03T08:59:57;99479.66;;;6.38;100.00
39793;BME280;26080;42.264;24.536;2023-03-03T09:02:23;99475.16;;;6.43;100.00
39793;BME280;26080;42.264;24.536;2023-03-03T09:04:48;99480.22;;;6.49;100.00
39793;BME280;26080;42.264;24.536;2023-03-03T09:07:14;99477.75;;;6.43;100.00
39793;BME280;26080;42.264;24.536;2023-03-03T09:09:39;99474.78;;;6.26;100.00
39793;BME280;26080;42.264;24.536;2023-03-03T09:12:17;99475.94;;;6.46;100.00
39793;BME280;26080;42.264;24.536;2023-03-03T09:14:43;99468.53;;;6.33;100.00
39793;BME280;26080;42.264;24.536;2023-03-03T09:17:33;99462.00;;;6.16;100.00
39793;BME280;26080;42.264;24.536;2023-03-03T09:20:55;99461.28;;;6.11;100.00
39793;BME280;26080;42.264;24.536;2023-03-03T09:22:57;99470.06;;;6.07;100.00
39793;BME280;26080;42.264;24.536;2023-03-03T09:25:40;99455.78;;;5.91;100.00
39793;BME280;26080;42.264;24.536;2023-03-03T09:30:51;99467.03;;;5.91;100.00
39793;BME280;26080;42.264;24.536;2023-03-03T09:33:24;99462.63;;;5.93;100.00
39793;BME280;26080;42.264;24.536;2023-03-03T09:36:00;99458.38;;;5.91;100.00
39793;BME280;26080;42.264;24.536;2023-03-03T09:38:30;99455.72;;;5.92;100.00
39793;BME280;26080;42.264;24.536;2023-03-03T09:47:09;99468.13;;;5.81;100.00
39793;BME280;26080;42.264;24.536;2023-03-03T09:52:32;99464.44;;;5.88;100.00
39793;BME280;26080;42.264;24.536;2023-03-03T09:55:14;99454.66;;;6.00;100.00
39793;BME280;26080;42.264;24.536;2023-03-03T10:17:28;99455.56;;;6.62;100.00
39793;BME280;26080;42.264;24.536;2023-03-03T10:25:33;99446.00;;;7.20;100.00
39793;BME280;26080;42.264;24.536;2023-03-03T10:31:47;99431.41;;;7.67;100.00
39793;BME280;26080;42.264;24.536;2023-03-03T10:52:47;99411.50;;;8.86;100.00
39793;BME280;26080;42.264;24.536;2023-03-03T11:03:14;99400.53;;;8.77;100.00
39793;BME280;26080;42.264;24.536;2023-03-03T11:08:44;99396.09;;;8.80;100.00
39793;BME280;26080;42.264;24.536;2023-03-03T11:12:06;99400.59;;;8.99;100.00
39793;BME280;26080;42.264;24.536;2023-03-03T11:14:23;99391.53;;;8.85;100.00
39793;BME280;26080;42.264;24.536;2023-03-03T11:20:50;99389.63;;;8.67;100.00
39793;BME280;26080;42.264;24.536;2023-03-03T11:29:22;99375.19;;;8.33;100.00
39793;BME280;26080;42.264;24.536;2023-03-03T11:31:34;99373.00;;;8.70;100.00
39793;BME280;26080;42.264;24.536;2023-03-03T11:36:55;99358.53;;;9.27;100.00
39793;BME280;26080;42.264;24.536;2023-03-03T11:39:24;99364.41;;;9.32;100.00
39793;BME280;26080;42.264;24.536;2023-03-03T11:47:05;99346.19;;;9.71;100.00
39793;BME280;26080;42.264;24.536;2023-03-03T11:49:50;99346.13;;;9.72;100.00
39793;BME280;26080;42.264;24.536;2023-03-03T11:55:29;99337.56;;;9.89;100.00
39793;BME280;26080;42.264;24.536;2023-03-03T11:58:18;99334.81;;;9.72;100.00
39793;BME280;26080;42.264;24.536;2023-03-03T12:03:52;99337.72;;;9.66;100.00
39793;BME280;26080;42.264;24.536;2023-03-03T12:11:39;99329.84;;;9.03;100.00
39793;BME280;26080;42.264;24.536;2023-03-03T12:17:02;99331.66;;;8.81;100.00
39793;BME280;26080;42.264;24.536;2023-03-03T12:19:33;99320.16;;;8.85;100.00
39793;BME280;26080;42.264;24.536;2023-03-03T12:25:11;99321.56;;;8.94;100.00
39793;BME280;26080;42.264;24.536;2023-03-03T12:41:54;99325.31;;;8.86;100.00
39793;BME280;26080;42.264;24.536;2023-03-03T12:44:46;99329.00;;;8.59;100.00
39793;BME280;26080;42.264;24.536;2023-03-03T12:47:45;99317.50;;;8.65;100.00
39793;BME280;26080;42.264;24.536;2023-03-03T13:00:47;99316.25;;;9.58;100.00
39793;BME280;26080;42.264;24.536;2023-03-03T13:08:57;99303.63;;;9.27;100.00
39793;BME280;26080;42.264;24.536;2023-03-03T13:14:54;99304.19;;;9.35;100.00
39793;BME280;26080;42.264;24.536;2023-03-03T13:17:37;99297.09;;;9.57;100.00
39793;BME280;26080;42.264;24.536;2023-03-03T13:20:24;99299.38;;;9.44;100.00
39793;BME280;26080;42.264;24.536;2023-03-03T13:23:07;99299.72;;;9.37;100.00
39793;BME280;26080;42.264;24.536;2023-03-03T13:30:56;99291.00;;;8.74;100.00
39793;BME280;26080;42.264;24.536;2023-03-03T13:33:33;99296.78;;;8.82;100.00
39793;BME280;26080;42.264;24.536;2023-03-03T13:36:10;99282.56;;;8.89;100.00
39793;BME280;26080;42.264;24.536;2023-03-03T13:38:52;99286.00;;;9.11;100.00
39793;BME280;26080;42.264;24.536;2023-03-03T13:46:41;99287.50;;;9.17;100.00
39793;BME280;26080;42.264;24.536;2023-03-03T13:49:36;99284.16;;;9.13;100.00
39793;BME280;26080;42.264;24.536;2023-03-03T13:52:10;99285.84;;;8.94;100.00
39793;BME280;26080;42.264;24.536;2023-03-03T14:03:14;99272.38;;;9.03;100.00
39793;BME280;26080;42.264;24.536;2023-03-03T14:05:50;99272.66;;;8.97;100.00
39793;BME280;26080;42.264;24.536;2023-03-03T14:14:41;99281.13;;;8.82;100.00
39793;BME280;26080;42.264;24.536;2023-03-03T14:16:55;99282.47;;;8.90;100.00
39793;BME280;26080;42.264;24.536;2023-03-03T14:22:25;99273.63;;;8.73;100.00
39793;BME280;26080;42.264;24.536;2023-03-03T14:25:14;99273.94;;;8.87;100.00
39793;BME280;26080;42.264;24.536;2023-03-03T14:33:15;99257.34;;;8.88;100.00
39793;BME280;26080;42.264;24.536;2023-03-03T14:35:47;99265.50;;;8.80;100.00
39793;BME280;26080;42.264;24.536;2023-03-03T14:38:19;99265.56;;;8.79;100.00
39793;BME280;26080;42.264;24.536;2023-03-03T14:40:47;99257.13;;;8.72;100.00
39793;BME280;26080;42.264;24.536;2023-03-03T14:43:25;99261.50;;;8.72;100.00
39793;BME280;26080;42.264;24.536;2023-03-03T14:48:49;99264.03;;;8.73;100.00
39793;BME280;26080;42.264;24.536;2023-03-03T14:51:32;99265.28;;;8.65;100.00
39793;BME280;26080;42.264;24.536;2023-03-03T14:53:57;99253.94;;;8.66;100.00
39793;BME280;26080;42.264;24.536;2023-03-03T14:56:24;99264.03;;;8.73;100.00
39793;BME280;26080;42.264;24.536;2023-03-03T14:58:51;99263.47;;;8.67;100.00
39793;BME280;26080;42.264;24.536;2023-03-03T15:01:34;99242.75;;;8.40;100.00
39793;BME280;26080;42.264;24.536;2023-03-03T15:04:04;99262.00;;;8.38;100.00
39793;BME280;26080;42.264;24.536;2023-03-03T15:11:56;99244.97;;;8.49;100.00
39793;BME280;26080;42.264;24.536;2023-03-03T15:14:31;99257.94;;;8.52;100.00
39793;BME280;26080;42.264;24.536;2023-03-03T15:17:24;99255.78;;;8.62;100.00
39793;BME280;26080;42.264;24.536;2023-03-03T15:22:40;99270.75;;;8.37;100.00
39793;BME280;26080;42.264;24.536;2023-03-03T15:36:49;99267.94;;;7.71;100.00
39793;BME280;26080;42.264;24.536;2023-03-03T15:39:25;99269.19;;;7.61;100.00
39793;BME280;26080;42.264;24.536;2023-03-03T15:42:02;99273.13;;;7.48;100.00
39793;BME280;26080;42.264;24.536;2023-03-03T15:45:00;99269.06;;;7.39;100.00
39793;BME280;26080;42.264;24.536;2023-03-03T15:48:01;99274.28;;;7.39;100.00
39793;BME280;26080;42.264;24.536;2023-03-03T16:02:03;99270.72;;;7.17;100.00
39793;BME280;26080;42.264;24.536;2023-03-03T16:04:35;99279.91;;;7.02;100.00
39793;BME280;26080;42.264;24.536;2023-03-03T16:09:51;99280.50;;;6.83;100.00
39793;BME280;26080;42.264;24.536;2023-03-03T16:12:42;99284.44;;;6.69;100.00
39793;BME280;26080;42.264;24.536;2023-03-03T16:20:59;99285.72;;;6.56;100.00
39793;BME280;26080;42.264;24.536;2023-03-03T16:23:37;99258.53;;;6.38;100.00
39793;BME280;26080;42.264;24.536;2023-03-03T16:37:16;99292.81;;;5.93;100.00
39793;BME280;26080;42.264;24.536;2023-03-03T16:39:55;99311.00;;;5.93;100.00
39793;BME280;26080;42.264;24.536;2023-03-03T16:42:31;99313.44;;;5.99;100.00
39793;BME280;26080;42.264;24.536;2023-03-03T16:56:03;99328.56;;;6.44;100.00
39793;BME280;26080;42.264;24.536;2023-03-03T17:04:30;99333.94;;;6.39;100.00
39793;BME280;26080;42.264;24.536;2023-03-03T17:07:07;99315.53;;;6.17;100.00
39793;BME280;26080;42.264;24.536;2023-03-03T17:17:39;99340.06;;;6.07;100.00
39793;BME280;26080;42.264;24.536;2023-03-03T17:26:10;99354.69;;;5.79;100.00
39793;BME280;26080;42.264;24.536;2023-03-03T17:31:54;99359.38;;;5.66;100.00
39793;BME280;26080;42.264;24.536;2023-03-03T17:34:31;99363.84;;;5.59;100.00
39793;BME280;26080;42.264;24.536;2023-03-03T17:37:23;99370.31;;;5.45;100.00
39793;BME280;26080;42.264;24.536;2023-03-03T17:40:10;99358.91;;;5.50;100.00
39793;BME280;26080;42.264;24.536;2023-03-03T17:45:23;99342.25;;;5.57;100.00
39793;BME280;26080;42.264;24.536;2023-03-03T17:47:58;99354.16;;;5.66;100.00
39793;BME280;26080;42.264;24.536;2023-03-03T17:58:44;99352.84;;;5.16;100.00
39793;BME280;26080;42.264;24.536;2023-03-03T18:07:06;99373.19;;;4.98;100.00
39793;BME280;26080;42.264;24.536;2023-03-03T18:12:20;99384.16;;;5.10;100.00
39793;BME280;26080;42.264;24.536;2023-03-03T18:22:52;99395.88;;;5.26;100.00
39793;BME280;26080;42.264;24.536;2023-03-03T18:25:50;99384.53;;;5.30;100.00
39793;BME280;26080;42.264;24.536;2023-03-03T18:28:20;99403.19;;;5.46;100.00
39793;BME280;26080;42.264;24.536;2023-03-03T18:30:55;99398.59;;;5.55;100.00